createdAt,value
2018-06-29T00:00:50.594Z,56.33
2018-06-29T00:03:20.183Z,54.94
2018-06-29T00:05:49.724Z,54.31
2018-06-29T00:08:19.302Z,53.15
2018-06-29T00:10:49.000Z,52.89
2018-06-29T00:13:18.721Z,51.30
2018-06-29T00:15:48.620Z,50.43
2018-06-29T00:18:18.179Z,50.02
2018-06-29T00:20:47.871Z,49.87
2018-06-29T00:23:17.551Z,48.90
2018-06-29T00:25:46.947Z,48.00
2018-06-29T00:28:16.675Z,47.07
2018-06-29T00:30:46.380Z,46.44
2018-06-29T00:33:15.929Z,47.20
2018-06-29T00:35:45.588Z,46.57
2018-06-29T00:38:15.171Z,45.35
2018-06-29T00:40:44.805Z,44.88
2018-06-29T00:43:14.393Z,44.19
2018-06-29T00:45:44.694Z,44.20
2018-06-29T00:48:14.277Z,43.23
2018-06-29T00:50:44.083Z,44.00
2018-06-29T00:53:14.081Z,43.41
2018-06-29T00:55:43.891Z,43.47
2018-06-29T00:58:14.018Z,43.37
2018-06-29T01:00:43.874Z,43.60
2018-06-29T01:03:13.525Z,43.47
2018-06-29T01:05:43.383Z,43.47
2018-06-29T01:08:13.340Z,43.27
2018-06-29T01:10:42.878Z,43.13
2018-06-29T01:13:13.019Z,43.46
2018-06-29T01:15:43.097Z,43.29
2018-06-29T01:18:12.831Z,43.19
2018-06-29T01:20:42.843Z,43.62
2018-06-29T01:23:12.605Z,43.66
2018-06-29T01:25:42.080Z,43.93
2018-06-29T01:28:11.747Z,43.90
2018-06-29T01:30:41.341Z,44.43
2018-06-29T01:33:10.857Z,43.47
2018-06-29T01:35:40.544Z,44.32
2018-06-29T01:38:10.275Z,43.62
2018-06-29T01:40:39.733Z,43.81
2018-06-29T01:43:09.610Z,43.87
2018-06-29T01:45:39.701Z,43.58
2018-06-29T01:48:09.917Z,42.81
2018-06-29T01:50:39.447Z,42.70
2018-06-29T01:53:09.110Z,42.16
2018-06-29T01:55:39.103Z,42.01
2018-06-29T01:58:08.643Z,41.75
2018-06-29T02:00:38.149Z,41.63
2018-06-29T02:03:08.062Z,41.64
2018-06-29T02:05:37.351Z,41.82
2018-06-29T02:08:06.854Z,41.72
2018-06-29T02:10:36.848Z,41.57
2018-06-29T02:13:06.209Z,41.37
2018-06-29T02:15:35.709Z,41.73
2018-06-29T02:18:05.793Z,41.76
2018-06-29T02:20:35.300Z,42.39
2018-06-29T02:23:04.874Z,42.19
2018-06-29T02:25:34.853Z,42.96
2018-06-29T02:28:04.271Z,43.00
2018-06-29T02:30:33.914Z,42.88
2018-06-29T02:33:03.997Z,43.34
2018-06-29T02:35:33.697Z,43.46
2018-06-29T02:38:03.236Z,43.90
2018-06-29T02:40:32.946Z,43.50
2018-06-29T02:43:02.589Z,43.87
2018-06-29T02:45:32.232Z,44.12
2018-06-29T02:48:01.754Z,44.12
2018-06-29T02:50:31.604Z,44.63
2018-06-29T02:53:01.033Z,44.22
2018-06-29T02:55:30.645Z,44.14
2018-06-29T02:58:00.409Z,44.47
2018-06-29T03:00:29.908Z,44.49
2018-06-29T03:02:59.690Z,45.09
2018-06-29T03:05:29.193Z,44.74
2018-06-29T03:07:58.802Z,44.69
2018-06-29T03:10:28.460Z,45.06
2018-06-29T03:12:57.968Z,44.75
2018-06-29T03:15:27.616Z,45.35
2018-06-29T03:17:57.330Z,45.28
2018-06-29T03:20:26.931Z,44.88
2018-06-29T03:22:56.436Z,44.98
2018-06-29T03:25:26.258Z,45.21
2018-06-29T03:27:56.006Z,44.65
2018-06-29T03:30:26.140Z,44.88
2018-06-29T03:32:56.101Z,44.86
2018-06-29T03:35:25.773Z,45.41
2018-06-29T03:37:55.933Z,45.57
2018-06-29T03:40:25.780Z,45.16
2018-06-29T03:42:55.959Z,44.96
2018-06-29T03:45:25.841Z,45.18
2018-06-29T03:47:55.791Z,44.92
2018-06-29T03:50:25.516Z,44.90
2018-06-29T03:52:55.525Z,44.58
2018-06-29T03:55:25.460Z,44.96
2018-06-29T03:57:55.084Z,45.17
2018-06-29T04:00:25.460Z,44.74
2018-06-29T04:02:54.918Z,44.55
2018-06-29T04:05:24.417Z,44.38
2018-06-29T04:07:54.547Z,44.70
2018-06-29T04:10:24.061Z,44.52
2018-06-29T04:12:53.726Z,44.87
2018-06-29T04:15:23.482Z,44.53
2018-06-29T04:17:52.876Z,45.08
2018-06-29T04:20:22.595Z,44.95
2018-06-29T04:22:52.524Z,44.81
2018-06-29T04:25:22.258Z,44.64
2018-06-29T04:27:51.993Z,44.39
2018-06-29T04:30:21.928Z,44.54
2018-06-29T04:32:51.343Z,44.11
2018-06-29T04:35:20.812Z,44.71
2018-06-29T04:37:50.338Z,44.47
2018-06-29T04:40:20.537Z,44.42
2018-06-29T04:42:49.745Z,44.13
2018-06-29T04:45:19.272Z,44.33
2018-06-29T04:47:49.531Z,44.28
2018-06-29T04:50:19.102Z,43.62
2018-06-29T04:52:48.852Z,43.44
2018-06-29T04:55:18.228Z,43.38
2018-06-29T04:57:47.626Z,43.59
2018-06-29T05:00:17.228Z,43.24
2018-06-29T05:02:46.978Z,43.49
2018-06-29T05:05:16.465Z,43.55
2018-06-29T05:07:46.485Z,42.72
2018-06-29T05:10:15.843Z,42.70
2018-06-29T05:12:45.625Z,43.09
2018-06-29T05:15:15.067Z,42.65
2018-06-29T05:17:44.192Z,42.70
2018-06-29T05:20:13.929Z,42.82
2018-06-29T05:22:43.718Z,41.82
2018-06-29T05:25:13.564Z,42.29
2018-06-29T05:27:42.771Z,42.15
2018-06-29T05:30:12.260Z,42.08
2018-06-29T05:32:41.711Z,42.21
2018-06-29T05:35:10.819Z,41.84
2018-06-29T05:41:19.473Z,41.79
2018-06-29T05:43:49.403Z,41.32
2018-06-29T05:46:18.879Z,41.87
2018-06-29T05:48:48.110Z,41.78
2018-06-29T05:51:18.052Z,41.14
2018-06-29T05:53:47.681Z,41.40
2018-06-29T05:56:17.568Z,41.14
2018-06-29T05:58:47.345Z,41.16
2018-06-29T06:01:16.542Z,40.63
2018-06-29T06:03:46.109Z,41.38
2018-06-29T06:06:15.762Z,40.97
2018-06-29T06:08:44.916Z,40.43
2018-06-29T06:11:14.392Z,41.05
2018-06-29T06:13:43.930Z,40.58
2018-06-29T06:16:13.249Z,40.57
2018-06-29T06:18:42.607Z,41.30
2018-06-29T06:21:12.110Z,40.73
2018-06-29T06:23:41.306Z,41.12
2018-06-29T06:26:10.761Z,41.21
2018-06-29T06:28:40.361Z,41.07
2018-06-29T06:31:09.596Z,40.97
2018-06-29T06:33:39.325Z,40.80
2018-06-29T06:36:09.026Z,41.16
2018-06-29T06:38:38.642Z,41.43
2018-06-29T06:41:08.206Z,40.95
2018-06-29T06:43:37.637Z,40.87
2018-06-29T06:46:07.572Z,40.76
2018-06-29T06:48:37.153Z,40.48
2018-06-29T06:51:06.942Z,40.59
2018-06-29T06:53:36.139Z,40.86
2018-06-29T06:56:05.620Z,40.45
2018-06-29T06:58:35.480Z,40.79
2018-06-29T07:01:04.954Z,40.38
2018-06-29T07:03:34.201Z,40.37
2018-06-29T07:06:03.821Z,40.27
2018-06-29T07:08:33.234Z,40.12
2018-06-29T07:11:02.770Z,40.10
2018-06-29T07:13:32.672Z,40.38
2018-06-29T07:16:01.827Z,40.48
2018-06-29T07:18:30.990Z,40.21
2018-06-29T07:21:00.731Z,40.55
2018-06-29T07:23:30.402Z,39.80
2018-06-29T07:26:00.023Z,39.35
2018-06-29T07:28:29.498Z,38.92
2018-06-29T07:30:58.813Z,38.85
2018-06-29T07:33:28.054Z,38.44
2018-06-29T07:35:57.827Z,36.39
2018-06-29T07:38:27.191Z,34.05
2018-06-29T07:40:56.567Z,33.56
2018-06-29T07:43:26.358Z,33.45
2018-06-29T07:45:55.784Z,32.53
2018-06-29T07:48:24.944Z,32.85
2018-06-29T07:50:54.410Z,31.86
2018-06-29T07:53:23.811Z,31.24
2018-06-29T07:55:52.993Z,30.86
2018-06-29T07:58:22.542Z,30.51
2018-06-29T08:03:19.931Z,30.88
2018-06-29T08:05:49.440Z,32.03
2018-06-29T08:08:18.913Z,32.55
2018-06-29T08:10:48.073Z,32.95
2018-06-29T08:13:17.570Z,32.60
2018-06-29T08:15:47.367Z,32.63
2018-06-29T08:18:16.924Z,32.89
2018-06-29T08:20:46.705Z,33.37
2018-06-29T08:23:16.204Z,33.91
2018-06-29T08:25:45.751Z,33.29
2018-06-29T08:28:14.986Z,33.48
2018-06-29T08:30:44.701Z,33.30
2018-06-29T08:33:14.157Z,32.63
2018-06-29T08:35:43.596Z,32.44
2018-06-29T08:38:12.703Z,32.58
2018-06-29T08:40:42.093Z,32.29
2018-06-29T08:43:11.599Z,32.29
2018-06-29T08:45:40.828Z,32.34
2018-06-29T08:48:10.587Z,32.76
2018-06-29T08:50:40.531Z,32.19
2018-06-29T08:53:09.896Z,33.17
2018-06-29T08:55:38.996Z,33.01
2018-06-29T08:58:08.435Z,33.26
2018-06-29T09:00:37.917Z,32.36
2018-06-29T09:03:07.466Z,32.80
2018-06-29T09:05:37.180Z,32.74
2018-06-29T09:08:06.501Z,32.48
2018-06-29T09:10:35.673Z,32.38
2018-06-29T09:13:05.297Z,33.10
2018-06-29T09:15:35.049Z,32.65
2018-06-29T09:18:04.976Z,32.61
2018-06-29T09:20:34.490Z,33.01
2018-06-29T09:23:04.042Z,32.57
2018-06-29T09:25:33.443Z,33.12
2018-06-29T09:28:02.819Z,32.02
2018-06-29T09:30:32.222Z,31.42
2018-06-29T09:33:01.522Z,30.95
2018-06-29T09:35:31.243Z,31.56
2018-06-29T09:38:01.220Z,31.45
2018-06-29T09:40:30.531Z,31.77
2018-06-29T09:42:59.919Z,32.32
2018-06-29T09:45:29.257Z,33.36
2018-06-29T09:47:58.694Z,33.21
2018-06-29T09:50:28.365Z,33.12
2018-06-29T09:52:57.916Z,32.70
2018-06-29T09:55:27.269Z,33.04
2018-06-29T09:57:56.787Z,32.08
2018-06-29T10:00:31.639Z,31.97
2018-06-29T10:03:01.690Z,31.53
2018-06-29T10:05:31.531Z,30.68
2018-06-29T10:08:01.099Z,30.56
2018-06-29T10:10:30.932Z,30.33
2018-06-29T10:13:00.711Z,31.14
2018-06-29T10:15:29.930Z,31.28
2018-06-29T10:17:59.572Z,31.12
2018-06-29T10:20:29.348Z,31.21
2018-06-29T10:22:58.568Z,31.63
2018-06-29T10:25:28.393Z,31.27
2018-06-29T10:27:57.920Z,31.42
2018-06-29T10:30:27.494Z,31.19
2018-06-29T10:32:57.869Z,31.71
2018-06-29T10:35:27.239Z,31.59
2018-06-29T10:37:56.904Z,31.50
2018-06-29T10:40:26.886Z,31.22
2018-06-29T10:42:56.368Z,31.09
2018-06-29T10:45:25.730Z,30.98
2018-06-29T10:47:55.304Z,31.43
2018-06-29T10:50:25.246Z,31.49
2018-06-29T10:52:54.885Z,30.55
2018-06-29T10:55:24.446Z,30.24
2018-06-29T10:57:53.895Z,30.77
2018-06-29T11:00:23.409Z,30.53
2018-06-29T11:02:53.205Z,30.89
2018-06-29T11:05:22.650Z,31.09
2018-06-29T11:07:51.910Z,31.39
2018-06-29T11:10:22.003Z,30.82
2018-06-29T11:12:51.511Z,31.05
2018-06-29T11:15:20.743Z,30.93
2018-06-29T11:17:50.866Z,30.85
2018-06-29T11:20:20.505Z,30.25
2018-06-29T11:22:49.826Z,30.31
2018-06-29T11:25:19.760Z,29.62
2018-06-29T11:27:49.433Z,30.02
2018-06-29T11:30:18.613Z,30.16
2018-06-29T11:32:48.330Z,29.57
2018-06-29T11:35:17.860Z,29.51
2018-06-29T11:37:47.029Z,29.00
2018-06-29T11:40:16.396Z,29.01
2018-06-29T11:42:46.109Z,28.40
2018-06-29T11:45:15.501Z,28.33
2018-06-29T11:47:45.141Z,27.95
2018-06-29T11:50:14.756Z,28.68
2018-06-29T11:52:43.863Z,28.64
2018-06-29T11:55:13.473Z,28.52
2018-06-29T11:57:42.899Z,27.73
2018-06-29T12:00:12.586Z,28.32
2018-06-29T12:02:42.218Z,27.28
2018-06-29T12:05:11.759Z,26.80
2018-06-29T12:07:41.376Z,26.99
2018-06-29T12:10:11.069Z,26.95
2018-06-29T12:12:40.507Z,27.17
2018-06-29T12:15:10.295Z,27.29
2018-06-29T12:17:40.000Z,26.88
2018-06-29T12:20:09.240Z,26.13
2018-06-29T12:22:39.037Z,26.47
2018-06-29T12:25:08.718Z,26.92
2018-06-29T12:27:38.655Z,26.15
2018-06-29T12:30:08.346Z,25.87
2018-06-29T12:32:37.919Z,25.21
2018-06-29T12:35:07.339Z,25.36
2018-06-29T12:37:36.972Z,24.99
2018-06-29T12:40:06.489Z,25.52
2018-06-29T12:42:36.128Z,24.87
2018-06-29T12:45:05.749Z,24.16
2018-06-29T12:47:35.316Z,24.69
2018-06-29T12:50:05.002Z,24.09
2018-06-29T12:52:34.267Z,23.79
2018-06-29T12:55:04.542Z,23.50
2018-06-29T12:57:34.230Z,23.82
2018-06-29T13:00:03.786Z,23.91
2018-06-29T13:02:34.001Z,23.67
2018-06-29T13:05:03.254Z,24.22
2018-06-29T13:07:32.441Z,23.65
2018-06-29T13:10:02.470Z,23.45
2018-06-29T13:12:32.048Z,23.79
2018-06-29T13:15:01.610Z,23.76
2018-06-29T13:17:30.922Z,23.89
2018-06-29T13:20:00.388Z,23.25
2018-06-29T13:22:30.268Z,23.19
2018-06-29T13:25:00.037Z,23.08
2018-06-29T13:27:29.762Z,23.02
2018-06-29T13:30:01.034Z,23.45
2018-06-29T13:32:30.778Z,23.22
2018-06-29T13:35:00.304Z,24.00
2018-06-29T13:37:29.885Z,24.13
2018-06-29T13:39:59.827Z,23.92
2018-06-29T13:42:29.021Z,23.88
2018-06-29T13:44:58.504Z,23.81
2018-06-29T13:47:28.595Z,23.54
2018-06-29T13:49:58.277Z,24.08
2018-06-29T13:52:27.527Z,23.89
2018-06-29T13:54:57.122Z,23.14
2018-06-29T13:57:26.765Z,24.01
2018-06-29T13:59:56.374Z,24.41
2018-06-29T14:02:25.962Z,24.23
2018-06-29T14:04:55.421Z,23.78
2018-06-29T14:07:24.881Z,23.69
2018-06-29T14:09:54.338Z,23.42
2018-06-29T14:12:23.873Z,23.45
2018-06-29T14:14:53.131Z,22.97
2018-06-29T14:17:22.480Z,22.59
2018-06-29T14:19:52.210Z,22.67
2018-06-29T14:22:21.524Z,22.86
2018-06-29T14:24:50.805Z,22.67
2018-06-29T14:27:20.030Z,22.77
2018-06-29T14:29:49.799Z,22.91
2018-06-29T14:32:19.313Z,22.72
2018-06-29T14:34:48.720Z,22.49
2018-06-29T14:37:18.024Z,23.02
2018-06-29T14:39:47.579Z,22.46
2018-06-29T14:42:16.908Z,23.24
2018-06-29T14:44:46.254Z,23.05
2018-06-29T14:47:16.021Z,22.85
2018-06-29T14:49:45.422Z,23.67
2018-06-29T14:52:15.411Z,23.92
2018-06-29T14:54:46.023Z,23.56
2018-06-29T14:57:15.471Z,23.79
2018-06-29T14:59:45.055Z,22.71
2018-06-29T15:02:14.571Z,22.20
2018-06-29T15:04:44.292Z,22.45
2018-06-29T15:07:13.503Z,22.49
2018-06-29T15:09:43.118Z,22.08
2018-06-29T15:12:12.214Z,22.85
2018-06-29T15:15:12.417Z,23.01
2018-06-29T15:17:41.994Z,22.90
2018-06-29T15:20:11.115Z,23.53
2018-06-29T15:22:40.641Z,23.14
2018-06-29T15:25:10.088Z,23.67
2018-06-29T15:27:39.667Z,22.89
2018-06-29T15:30:09.532Z,23.62
2018-06-29T15:32:39.032Z,23.16
2018-06-29T15:35:08.509Z,22.40
2018-06-29T15:37:38.167Z,22.78
2018-06-29T15:40:08.189Z,23.04
2018-06-29T15:42:37.616Z,23.46
2018-06-29T15:45:07.343Z,23.26
2018-06-29T15:47:37.328Z,23.66
2018-06-29T15:50:07.214Z,22.92
2018-06-29T15:52:36.831Z,23.50
2018-06-29T15:55:06.451Z,23.21
2018-06-29T15:57:36.029Z,23.50
2018-06-29T16:00:08.454Z,23.55
2018-06-29T16:02:37.892Z,23.41
2018-06-29T16:05:08.009Z,23.69
2018-06-29T16:07:37.727Z,23.52
2018-06-29T16:10:07.339Z,23.73
2018-06-29T16:12:37.167Z,23.59
2018-06-29T16:15:07.013Z,23.78
2018-06-29T16:17:36.515Z,24.09
2018-06-29T16:20:06.275Z,23.86
2018-06-29T16:22:35.978Z,24.25
2018-06-29T16:25:05.371Z,24.21
2018-06-29T16:27:34.932Z,24.43
2018-06-29T16:30:04.838Z,24.67
2018-06-29T16:32:34.155Z,24.05
2018-06-29T16:35:03.612Z,24.62
2018-06-29T16:37:33.722Z,24.54
2018-06-29T16:40:03.585Z,24.95
2018-06-29T16:42:33.477Z,24.60
2018-06-29T16:45:03.313Z,24.99
2018-06-29T16:47:32.947Z,24.69
2018-06-29T16:50:02.620Z,25.29
2018-06-29T16:52:32.302Z,25.21
2018-06-29T16:55:01.658Z,25.14
2018-06-29T16:57:30.849Z,25.57
2018-06-29T17:00:00.592Z,25.25
2018-06-29T17:02:30.238Z,24.85
2018-06-29T17:04:59.829Z,25.20
2018-06-29T17:07:29.491Z,25.72
2018-06-29T17:09:59.030Z,25.90
2018-06-29T17:12:28.819Z,25.54
2018-06-29T17:14:58.744Z,25.90
2018-06-29T17:17:28.504Z,26.31
2018-06-29T17:19:58.413Z,26.00
2018-06-29T17:22:28.217Z,26.12
2018-06-29T17:24:57.962Z,25.78
2018-06-29T17:27:27.781Z,25.63
2018-06-29T17:29:57.261Z,25.95
2018-06-29T17:32:27.225Z,26.21
2018-06-29T17:34:57.084Z,26.37
2018-06-29T17:37:27.163Z,26.60
2018-06-29T17:39:56.933Z,26.59
2018-06-29T17:42:26.691Z,26.05
2018-06-29T17:44:56.516Z,26.58
2018-06-29T17:47:26.316Z,26.10
2018-06-29T17:49:55.951Z,25.93
2018-06-29T17:52:25.805Z,26.93
2018-06-29T17:54:55.126Z,26.72
2018-06-29T17:57:25.104Z,26.31
2018-06-29T17:59:54.841Z,26.35
2018-06-29T18:02:24.311Z,26.37
2018-06-29T18:04:53.986Z,26.65
2018-06-29T18:07:23.687Z,27.33
2018-06-29T18:09:53.248Z,26.91
2018-06-29T18:12:22.911Z,26.67
2018-06-29T18:14:52.394Z,26.75
2018-06-29T18:17:21.843Z,27.06
2018-06-29T18:19:51.049Z,26.72
2018-06-29T18:22:20.689Z,26.77
2018-06-29T18:24:50.223Z,27.19
2018-06-29T18:27:19.855Z,27.72
2018-06-29T18:29:49.566Z,27.26
2018-06-29T18:32:19.457Z,27.55
2018-06-29T18:34:48.838Z,27.79
2018-06-29T18:37:18.521Z,27.62
2018-06-29T18:39:48.062Z,27.60
2018-06-29T18:42:17.766Z,27.86
2018-06-29T18:44:47.359Z,27.92
2018-06-29T18:47:17.521Z,27.49
2018-06-29T18:49:47.268Z,27.36
2018-06-29T18:52:17.058Z,27.44
2018-06-29T18:54:46.434Z,27.84
2018-06-29T18:57:16.239Z,27.37
2018-06-29T18:59:45.854Z,27.52
2018-06-29T19:02:15.252Z,27.47
2018-06-29T19:04:44.982Z,27.83
2018-06-29T19:07:14.642Z,27.55
2018-06-29T19:09:44.027Z,28.15
2018-06-29T19:12:13.568Z,28.01
2018-06-29T19:14:43.275Z,27.95
2018-06-29T19:17:12.920Z,28.43
2018-06-29T19:19:42.416Z,28.26
2018-06-29T19:22:12.115Z,28.32
2018-06-29T19:24:41.561Z,28.90
2018-06-29T19:27:10.975Z,29.25
2018-06-29T19:29:40.646Z,29.14
2018-06-29T19:32:09.862Z,28.90
2018-06-29T19:34:39.469Z,29.29
2018-06-29T19:37:08.985Z,29.34
2018-06-29T19:39:38.192Z,28.92
2018-06-29T19:42:07.651Z,29.16
2018-06-29T19:44:37.478Z,29.30
2018-06-29T19:47:07.925Z,29.45
2018-06-29T19:49:37.813Z,30.04
2018-06-29T19:52:07.292Z,29.85
2018-06-29T19:54:36.519Z,29.74
2018-06-29T19:57:06.135Z,30.12
2018-06-29T19:59:35.600Z,30.03
2018-06-29T20:02:05.457Z,30.27
2018-06-29T20:04:34.634Z,30.29
2018-06-29T20:07:04.115Z,30.56
2018-06-29T20:09:33.607Z,30.63
2018-06-29T20:12:02.975Z,30.25
2018-06-29T20:14:32.244Z,30.53
2018-06-29T20:17:01.913Z,30.66
2018-06-29T20:19:31.153Z,31.06
2018-06-29T20:22:00.999Z,31.17
2018-06-29T20:24:30.414Z,30.92
2018-06-29T20:26:59.583Z,30.78
2018-06-29T20:29:29.224Z,31.46
2018-06-29T20:31:58.724Z,31.57
2018-06-29T20:34:27.918Z,31.34
2018-06-29T20:36:57.349Z,31.75
2018-06-29T20:39:26.888Z,32.57
2018-06-29T20:41:56.107Z,32.65
2018-06-29T20:44:25.675Z,33.22
2018-06-29T20:46:55.096Z,33.46
2018-06-29T20:49:24.307Z,33.82
2018-06-29T20:51:54.250Z,33.75
2018-06-29T20:54:25.039Z,34.06
2018-06-29T20:56:54.713Z,34.06
2018-06-29T20:59:24.068Z,34.17
2018-06-29T21:01:53.478Z,34.49
2018-06-29T21:04:23.093Z,34.36
2018-06-29T21:06:52.379Z,34.86
2018-06-29T21:09:21.527Z,35.16
2018-06-29T21:11:51.116Z,34.93
2018-06-29T21:14:20.525Z,35.50
2018-06-29T21:16:49.629Z,35.38
2018-06-29T21:19:18.974Z,35.56
2018-06-29T21:21:48.255Z,36.10
2018-06-29T21:24:17.655Z,36.37
2018-06-29T21:26:47.329Z,36.07
2018-06-29T21:29:16.963Z,36.65
2018-06-29T21:31:46.395Z,36.45
2018-06-29T21:34:16.685Z,37.16
2018-06-29T21:36:46.189Z,37.08
2018-06-29T21:39:15.933Z,37.68
2018-06-29T21:41:45.557Z,37.71
2018-06-29T21:44:14.692Z,37.28
2018-06-29T21:46:43.954Z,37.51
2018-06-29T21:49:13.727Z,37.70
2018-06-29T21:51:42.925Z,37.67
2018-06-29T21:54:13.055Z,38.03
2018-06-29T21:56:43.030Z,38.66
2018-06-29T21:59:12.248Z,38.29
2018-06-29T22:01:41.583Z,38.62
2018-06-29T22:04:11.170Z,38.61
2018-06-29T22:06:40.351Z,38.64
2018-06-29T22:09:10.429Z,39.10
2018-06-29T22:11:40.031Z,38.84
2018-06-29T22:14:09.354Z,39.24
2018-06-29T22:16:38.652Z,39.90
2018-06-29T22:19:08.133Z,40.22
2018-06-29T22:21:37.510Z,40.17
2018-06-29T22:24:06.867Z,39.95
2018-06-29T22:26:36.191Z,40.24
2018-06-29T22:29:06.106Z,40.33
2018-06-29T22:31:35.355Z,40.39
2018-06-29T22:34:05.037Z,40.62
2018-06-29T22:36:34.765Z,40.87
2018-06-29T22:39:11.872Z,40.68
2018-06-29T22:41:42.125Z,40.75
2018-06-29T22:44:11.540Z,41.21
2018-06-29T22:46:41.075Z,40.77
2018-06-29T22:49:10.554Z,40.83
2018-06-29T22:51:40.091Z,40.79
2018-06-29T22:54:09.418Z,40.98
2018-06-29T22:56:39.168Z,40.78
2018-06-29T22:59:08.475Z,41.40
2018-06-29T23:01:37.665Z,41.47
2018-06-29T23:04:07.011Z,40.96
2018-06-29T23:06:36.606Z,41.15
2018-06-29T23:09:07.662Z,41.40
2018-06-29T23:11:36.866Z,41.17
2018-06-29T23:14:06.235Z,41.03
2018-06-29T23:16:35.694Z,41.37
2018-06-29T23:19:04.910Z,41.62
2018-06-29T23:21:34.388Z,41.31
2018-06-29T23:24:04.006Z,41.80
2018-06-29T23:26:33.444Z,41.22
2018-06-29T23:29:02.936Z,41.75
2018-06-29T23:31:32.294Z,41.75
2018-06-29T23:34:01.606Z,42.40
2018-06-29T23:36:31.086Z,42.12
2018-06-29T23:39:00.643Z,42.74
2018-06-29T23:41:30.140Z,42.46
2018-06-29T23:43:59.694Z,42.98
2018-06-29T23:46:29.968Z,42.52
2018-06-29T23:48:59.737Z,43.21
2018-06-29T23:51:29.488Z,42.40
2018-06-29T23:53:59.111Z,42.88
2018-06-29T23:56:28.792Z,43.18
2018-06-29T23:58:58.324Z,42.99
